This is the latest recevied weather packets stored in our database for station/object KK4PWJ-13. If no packets are shown the sender has not sent any weather packets the latest 10 day(s).
| Time | Temp. | Humidity | Pressure | Rain* | Wind** | Luminosity | Snow |
|---|---|---|---|---|---|---|---|
| 1777737467 | 13.33° C | 72% | 1012.5 hPa | 0 mm | - | 93 W/m² | - |
| 1777736860 | 13.33° C | 71% | 1012 hPa | 0 mm | - | 144 W/m² | - |
| 1777736246 | 13.33° C | 73% | 1012.4 hPa | 0 mm | - | 94 W/m² | - |
| 1777735943 | 13.33° C | 75% | 1012.1 hPa | 0 mm | - | 126 W/m² | - |
| 1777735640 | 13.33° C | 77% | 1012.2 hPa | 0 mm | - | 127 W/m² | - |
| 1777735338 | 13.33° C | 75% | 1011.8 hPa | 0 mm | - | 132 W/m² | - |
| 1777735035 | 13.33° C | 75% | 1011.4 hPa | 0 mm | - | 116 W/m² | - |
| 1777734732 | 13.33° C | 73% | 1011.6 hPa | 0 mm | - | 85 W/m² | - |
| 1777734429 | 13.33° C | 75% | 1011.8 hPa | 0 mm | - | 72 W/m² | - |
| 1777734126 | 12.78° C | 71% | 1011.7 hPa | 0 mm | - | 112 W/m² | - |
| 1777733822 | 12.78° C | 77% | 1012.2 hPa | 0 mm | - | 101 W/m² | - |
| 1777733519 | 12.78° C | 76% | 1011.8 hPa | 0 mm | - | 123 W/m² | - |
| 1777733216 | 12.78° C | 80% | 1012 hPa | 0 mm | - | 121 W/m² | - |
| 1777732912 | 12.78° C | 77% | 1012.1 hPa | 0 mm | - | 109 W/m² | - |
| 1777732608 | 12.78° C | 78% | 1012 hPa | 0 mm | - | 89 W/m² | - |
| 1777732306 | 12.78° C | 79% | 1012.3 hPa | 0 mm | - | 97 W/m² | - |
| 1777732003 | 12.78° C | 82% | 1012.1 hPa | 0 mm | - | 99 W/m² | - |
| 1777731700 | 12.22° C | 78% | 1012.1 hPa | 0 mm | - | 77 W/m² | - |
| 1777731397 | 12.78° C | 81% | 1011.9 hPa | 0 mm | - | 72 W/m² | - |
| 1777731095 | 12.78° C | 81% | 1011.7 hPa | 0 mm | - | 61 W/m² | - |
| 1777730793 | 12.22° C | 81% | 1011.8 hPa | 0 mm | - | 76 W/m² | - |
| 1777730490 | 12.22° C | 79% | 1011.8 hPa | 0 mm | - | 67 W/m² | - |
| 1777730186 | 12.22° C | 81% | 1011.9 hPa | 0 mm | - | 59 W/m² | - |
| 1777729883 | 12.22° C | 82% | 1011.8 hPa | 0 mm | - | 59 W/m² | - |
| 1777729579 | 12.22° C | 83% | 1011.4 hPa | 0 mm | - | 77 W/m² | - |
* Rain latest hour (hover to see other rain measurements)
** Current wind speed in m/s (hover to see current wind gust speed)